Time;durP1;ratioP1;P1;durP2;ratioP2;P2;SDS_P1;SDS_P2;PMS_P1;PMS_P2;Temp;Humidity;BMP_temperature;BMP_pressure;BME280_temperature;BME280_humidity;BME280_pressure;Samples;Min_cycle;Max_cycle;Signal;HPM_P1;HPM_P2
2022/12/13 00:00:32;;;;;;;2.50;1.27;;;;;;;6.28;83.97;98970.81;5073885;28;20020;-44
2022/12/13 00:02:58;;;;;;;1.50;1.20;;;;;;;6.02;84.70;98970.47;5073962;28;20021;-44
2022/12/13 00:05:23;;;;;;;1.80;1.02;;;;;;;5.92;84.48;98967.34;5073562;28;20361;-44
2022/12/13 00:07:48;;;;;;;1.33;1.13;;;;;;;5.87;83.64;98980.28;5073558;28;20088;-44
2022/12/13 00:10:14;;;;;;;2.83;1.33;;;;;;;5.62;84.40;98982.53;5073449;28;20043;-44
2022/12/13 00:12:39;;;;;;;1.40;1.10;;;;;;;5.46;84.65;98971.22;5073609;28;20043;-45
2022/12/13 00:15:05;;;;;;;1.85;1.30;;;;;;;5.53;83.50;98981.00;5073274;28;20024;-44
2022/12/13 00:17:32;;;;;;;1.85;1.50;;;;;;;5.71;83.02;98984.00;5073462;28;20084;-44
2022/12/13 00:19:58;;;;;;;2.00;1.77;;;;;;;5.45;82.47;98989.88;5073368;28;20471;-44
2022/12/13 00:22:23;;;;;;;2.10;1.70;;;;;;;5.41;82.65;98981.53;5073218;28;20103;-45
2022/12/13 00:24:48;;;;;;;2.08;1.58;;;;;;;5.30;83.45;98992.56;5073273;28;20023;-44
2022/12/13 00:27:14;;;;;;;2.60;1.80;;;;;;;5.37;82.45;98996.09;5072459;28;20150;-45
2022/12/13 00:29:39;;;;;;;2.75;1.98;;;;;;;5.17;82.79;99006.44;5072921;28;20058;-44
2022/12/13 00:32:05;;;;;;;3.00;2.00;;;;;;;5.26;81.46;99007.16;5073267;28;20020;-44
2022/12/13 00:34:30;;;;;;;2.70;2.10;;;;;;;5.12;81.81;99000.88;5072849;28;20070;-44
2022/12/13 00:36:57;;;;;;;2.58;2.00;;;;;;;5.13;82.44;99005.16;5072081;28;20023;-44
2022/12/13 00:39:23;;;;;;;2.25;1.70;;;;;;;5.35;81.47;98992.84;5072953;28;20121;-45
2022/12/13 00:41:49;;;;;;;1.90;1.70;;;;;;;5.20;80.41;98997.34;5072955;28;20499;-45
2022/12/13 00:44:14;;;;;;;1.95;1.65;;;;;;;5.30;79.10;99003.13;5072415;28;20386;-44
2022/12/13 00:46:40;;;;;;;2.13;1.60;;;;;;;5.21;77.85;99005.03;5073744;28;20040;-43
2022/12/13 00:49:06;;;;;;;2.05;1.70;;;;;;;5.26;78.08;99001.88;5073902;28;20052;-44
2022/12/13 00:51:33;;;;;;;2.40;1.75;;;;;;;5.13;79.81;99013.09;5073621;28;20021;-44
2022/12/13 00:54:00;;;;;;;2.20;1.67;;;;;;;5.33;79.51;99012.47;5072579;28;20461;-43
2022/12/13 00:56:28;;;;;;;2.13;1.80;;;;;;;5.30;79.66;99013.69;5072618;28;20036;-43
2022/12/13 00:58:54;;;;;;;2.78;1.67;;;;;;;5.25;80.45;99002.84;5072590;28;20023;-44
2022/12/13 01:01:23;;;;;;;2.08;1.65;;;;;;;5.25;80.83;99005.50;5071764;28;20435;-44
2022/12/13 01:03:49;;;;;;;2.15;1.77;;;;;;;5.36;81.24;99012.91;5072460;28;20156;-43
2022/12/13 01:06:19;;;;;;;1.98;1.58;;;;;;;5.29;81.37;99015.50;5072717;28;20048;-43
2022/12/13 01:08:46;;;;;;;3.08;1.92;;;;;;;5.27;80.58;99024.59;5072440;28;20082;-43
2022/12/13 01:11:11;;;;;;;2.55;1.90;;;;;;;4.82;81.91;99010.69;5072463;28;20044;-43
2022/12/13 01:13:38;;;;;;;2.45;1.90;;;;;;;5.44;79.64;99019.91;5072232;28;20443;-44
2022/12/13 01:16:05;;;;;;;2.05;1.70;;;;;;;5.06;80.33;99012.19;5072128;28;20024;-44
2022/12/13 01:18:30;;;;;;;3.50;1.90;;;;;;;4.83;80.27;99018.41;5072064;28;20048;-44
2022/12/13 01:20:58;;;;;;;3.00;2.10;;;;;;;4.89;80.97;99011.56;5072032;28;20089;-44
2022/12/13 01:23:23;;;;;;;2.30;1.80;;;;;;;4.84;80.69;99030.59;5072087;28;20472;-44
2022/12/13 01:25:49;;;;;;;2.55;2.05;;;;;;;4.71;81.24;99019.88;5072250;28;20081;-43
2022/12/13 01:28:14;;;;;;;3.28;2.10;;;;;;;4.96;80.56;99027.50;5071925;28;20020;-44
2022/12/13 01:30:40;;;;;;;2.40;2.05;;;;;;;5.33;79.44;99029.16;5071958;28;20027;-44
2022/12/13 01:33:05;;;;;;;2.50;2.10;;;;;;;5.12;79.41;99032.53;5072006;28;20498;-44
2022/12/13 01:35:33;;;;;;;2.90;2.20;;;;;;;5.07;78.32;99041.03;5072004;28;20024;-45
2022/12/13 01:37:59;;;;;;;2.38;2.03;;;;;;;4.89;77.67;99022.97;5071797;28;20104;-43
2022/12/13 01:40:24;;;;;;;2.70;2.22;;;;;;;5.11;77.50;99048.56;5071681;28;20490;-44
2022/12/13 01:42:49;;;;;;;2.95;2.03;;;;;;;5.08;78.08;99047.09;5072123;28;20024;-45
2022/12/13 01:45:26;;;;;;;2.65;2.00;;;;;;;4.70;79.47;99055.13;5071832;28;20583;-44
2022/12/13 01:47:58;;;;;;;3.03;2.55;;;;;;;5.03;78.93;99044.22;5071620;28;20024;-43
2022/12/13 01:50:29;;;;;;;3.90;2.08;;;;;;;4.86;77.68;99040.97;5071609;28;20103;-43
2022/12/13 01:52:55;;;;;;;4.32;2.55;;;;;;;5.09;76.69;99046.13;5071619;28;20361;-43
2022/12/13 01:55:23;;;;;;;2.53;2.30;;;;;;;4.85;77.08;99044.59;5071629;28;20071;-45
2022/12/13 01:57:51;;;;;;;3.13;2.40;;;;;;;4.61;76.90;99043.88;5071608;28;20468;-43
2022/12/13 02:00:17;;;;;;;3.03;2.42;;;;;;;4.79;76.09;99050.59;5071396;28;20012;-44
2022/12/13 02:02:44;;;;;;;4.38;3.03;;;;;;;4.91;75.49;99038.56;5071384;28;20026;-44
2022/12/13 02:05:22;;;;;;;3.53;2.67;;;;;;;4.70;74.92;99039.31;5071159;28;20115;-44
2022/12/13 02:07:48;;;;;;;3.33;2.60;;;;;;;4.57;74.93;99037.34;5071140;28;20111;-44
2022/12/13 02:10:13;;;;;;;3.28;2.65;;;;;;;4.57;75.04;99034.72;5071337;28;20505;-45
2022/12/13 02:12:40;;;;;;;3.50;2.38;;;;;;;4.62;73.54;99034.97;5071244;28;20021;-43
2022/12/13 02:15:17;;;;;;;2.83;2.40;;;;;;;4.88;72.56;99042.41;5071024;28;20036;-43
2022/12/13 02:18:05;;;;;;;3.53;2.42;;;;;;;4.44;73.51;99045.06;5071220;28;20045;-43
2022/12/13 02:21:04;;;;;;;3.42;2.67;;;;;;;4.76;72.05;99053.59;5071124;28;20028;-44
2022/12/13 02:23:54;;;;;;;3.33;2.55;;;;;;;4.78;73.06;99055.06;5062776;28;20040;-43
2022/12/13 02:26:43;;;;;;;3.45;2.47;;;;;;;4.79;73.13;99061.97;5070775;28;20025;-44
2022/12/13 02:29:23;;;;;;;3.42;2.78;;;;;;;4.86;73.28;99069.97;5070989;28;20025;-44
2022/12/13 02:32:05;;;;;;;3.70;2.72;;;;;;;4.85;72.38;99082.31;5071171;28;20456;-43
2022/12/13 02:34:40;;;;;;;4.22;3.00;;;;;;;4.55;72.84;99084.16;5070914;28;20031;-44
2022/12/13 02:37:16;;;;;;;3.38;2.72;;;;;;;4.52;72.79;99078.41;5070811;28;20417;-44
2022/12/13 02:40:02;;;;;;;3.30;2.60;;;;;;;4.59;72.55;99095.97;5071213;28;20345;-44
2022/12/13 02:42:47;;;;;;;3.63;2.80;;;;;;;4.54;72.73;99093.03;5070788;28;20012;-44
2022/12/13 02:45:17;;;;;;;3.53;2.70;;;;;;;4.62;71.78;99071.06;5070885;28;20024;-44
2022/12/13 02:47:44;;;;;;;3.67;2.80;;;;;;;4.72;71.33;99091.88;5070824;28;20082;-44
2022/12/13 02:50:13;;;;;;;3.85;3.00;;;;;;;4.63;71.19;99088.50;5071303;28;20020;-43
2022/12/13 02:52:41;;;;;;;4.93;3.30;;;;;;;4.58;70.80;99081.13;5070727;28;20029;-44
2022/12/13 02:55:11;;;;;;;4.10;3.10;;;;;;;4.61;70.96;99086.06;5070647;28;20108;-45
2022/12/13 02:57:40;;;;;;;;;;;;;;;4.50;71.55;99086.50;5071117;28;20414;-44
2022/12/13 03:00:20;;;;;;;3.70;2.78;;;;;;;4.41;71.34;99100.75;5071951;28;20007;-44
2022/12/13 03:03:17;;;;;;;4.63;2.92;;;;;;;4.72;70.16;99095.31;5075053;28;20133;-44
2022/12/13 03:08:47;;;;;;;3.75;2.70;;;;;;;4.96;69.00;99117.16;5074798;28;20043;-43
2022/12/13 03:11:18;;;;;;;3.50;2.60;;;;;;;4.36;70.17;99108.34;5074489;28;20025;-44
2022/12/13 03:13:52;;;;;;;6.20;2.72;;;;;;;4.39;70.12;99114.09;5074466;28;20510;-44
2022/12/13 03:16:28;;;;;;;3.60;2.60;;;;;;;4.09;70.54;99106.13;5074415;28;20029;-44
2022/12/13 03:18:59;;;;;;;3.75;2.80;;;;;;;4.10;70.43;99112.22;5074713;28;20037;-43
2022/12/13 03:21:24;;;;;;;3.90;2.83;;;;;;;4.28;69.78;99107.44;5074287;28;20071;-43
2022/12/13 03:23:50;;;;;;;4.35;3.08;;;;;;;4.42;68.87;99129.56;5074414;28;20135;-44
2022/12/13 03:26:20;;;;;;;4.82;2.90;;;;;;;4.40;69.27;99122.81;5074357;28;20063;-43
2022/12/13 03:28:45;;;;;;;3.78;3.00;;;;;;;4.03;70.12;99114.72;5074512;28;20104;-43
2022/12/13 03:31:10;;;;;;;3.78;2.65;;;;;;;4.29;69.29;99124.88;5074220;28;20115;-44
2022/12/13 03:33:37;;;;;;;4.00;2.80;;;;;;;4.39;69.08;99116.72;5072803;28;20024;-44
2022/12/13 03:36:04;;;;;;;4.38;2.85;;;;;;;4.48;69.18;99128.03;5074427;28;20016;-44
2022/12/13 03:38:30;;;;;;;4.28;3.20;;;;;;;4.47;69.76;99121.94;5074153;28;20086;-44
2022/12/13 03:41:01;;;;;;;3.72;2.63;;;;;;;4.47;69.45;99118.47;5074223;28;20024;-45
2022/12/13 03:43:28;;;;;;;3.80;2.85;;;;;;;4.40;69.41;99110.47;5073947;28;20503;-44
2022/12/13 03:45:54;;;;;;;3.80;2.88;;;;;;;4.31;69.95;99109.72;5074040;28;20024;-44
2022/12/13 03:48:20;;;;;;;4.47;3.17;;;;;;;4.41;69.72;99106.81;5074277;28;20024;-43
2022/12/13 03:50:46;;;;;;;2.97;2.33;;;;;;;4.42;70.13;99107.66;5072410;28;20028;-44
2022/12/13 03:53:12;;;;;;;3.92;2.70;;;;;;;4.28;69.72;99091.66;5073808;28;20539;-44
2022/12/13 03:55:37;;;;;;;4.15;2.72;;;;;;;4.24;69.50;99102.69;5073809;28;20107;-44
2022/12/13 03:58:03;;;;;;;3.88;2.80;;;;;;;4.29;69.35;99095.91;5073871;28;20404;-44
2022/12/13 04:00:29;;;;;;;5.10;3.05;;;;;;;4.18;69.52;99104.22;5074050;28;20470;-43
2022/12/13 04:02:54;;;;;;;4.47;3.00;;;;;;;4.04;69.99;99102.38;5073989;28;20020;-45
2022/12/13 04:05:20;;;;;;;5.05;3.35;;;;;;;4.27;69.03;99097.91;5074459;28;20021;-45
2022/12/13 04:07:46;;;;;;;5.10;3.28;;;;;;;4.30;68.54;99099.34;5074642;28;20068;-45
2022/12/13 04:10:12;;;;;;;4.30;2.85;;;;;;;4.19;68.81;99090.06;5074531;28;20030;-44
2022/12/13 04:15:21;;;;;;;3.40;2.63;;;;;;;4.14;68.01;99107.41;5074032;28;20118;-43
2022/12/13 04:17:46;;;;;;;3.50;2.80;;;;;;;4.36;67.14;99097.81;5073941;28;20471;-44
2022/12/13 04:20:12;;;;;;;4.10;2.90;;;;;;;4.36;66.90;99111.81;5073412;28;20040;-45
2022/12/13 04:22:37;;;;;;;3.58;2.72;;;;;;;4.47;65.74;99108.75;5073552;28;20146;-45
2022/12/13 04:25:03;;;;;;;4.55;3.00;;;;;;;4.30;66.58;99117.78;5074344;28;20021;-44
2022/12/13 04:27:29;;;;;;;3.80;2.80;;;;;;;4.16;66.45;99129.94;5074328;28;20020;-44
2022/12/13 04:29:55;;;;;;;4.15;3.05;;;;;;;4.58;65.54;99136.47;5074417;28;20032;-45
2022/12/13 04:32:20;;;;;;;3.47;2.60;;;;;;;4.51;65.68;99132.91;5073305;28;20484;-45
2022/12/13 04:34:46;;;;;;;5.60;3.35;;;;;;;4.60;65.59;99131.84;5073166;28;20063;-43
2022/12/13 04:37:11;;;;;;;6.28;3.55;;;;;;;4.43;66.81;99133.81;5072789;28;20032;-42
2022/12/13 04:39:36;;;;;;;5.35;3.50;;;;;;;4.41;66.69;99129.72;5072089;28;20029;-43
2022/12/13 04:42:03;;;;;;;5.20;3.20;;;;;;;4.37;66.88;99133.72;5072683;28;20104;-43
2022/12/13 04:44:28;;;;;;;4.63;2.78;;;;;;;4.20;67.46;99136.47;5072754;28;20028;-43
2022/12/13 04:46:54;;;;;;;4.20;3.10;;;;;;;4.39;67.45;99145.69;5072599;28;20024;-42
2022/12/13 04:49:19;;;;;;;3.85;3.00;;;;;;;4.43;67.42;99143.53;5072462;28;20066;-44
2022/12/13 04:51:45;;;;;;;5.53;3.33;;;;;;;4.66;65.69;99149.59;5072756;28;20048;-43
2022/12/13 04:54:10;;;;;;;5.30;3.50;;;;;;;4.63;66.02;99157.03;5071047;28;20127;-45
2022/12/13 04:56:36;;;;;;;4.70;3.42;;;;;;;4.53;66.06;99151.19;5072802;28;20033;-44
2022/12/13 04:59:02;;;;;;;6.07;3.72;;;;;;;4.32;66.11;99171.13;5072432;28;20055;-44
2022/12/13 05:01:27;;;;;;;5.22;3.40;;;;;;;4.10;66.19;99181.50;5071282;28;20404;-44
2022/12/13 05:03:53;;;;;;;4.93;3.40;;;;;;;4.05;66.51;99167.22;5072085;28;20369;-43
2022/12/13 05:06:18;;;;;;;7.90;4.63;;;;;;;4.27;65.53;99171.66;5072241;28;20344;-44
2022/12/13 05:08:43;;;;;;;6.55;5.00;;;;;;;4.15;65.32;99172.25;5072044;28;20032;-44
2022/12/13 05:11:10;;;;;;;7.80;4.55;;;;;;;4.04;66.55;99179.56;5071759;28;20044;-43
2022/12/13 05:13:36;;;;;;;27.98;13.60;;;;;;;4.02;66.08;99188.63;5071861;28;20028;-43
2022/12/13 05:16:04;;;;;;;5.72;3.65;;;;;;;4.09;65.84;99185.13;5072120;28;20035;-42
2022/12/13 05:18:31;;;;;;;6.10;3.63;;;;;;;4.40;64.98;99183.41;5071754;28;20061;-44
2022/12/13 05:21:04;;;;;;;4.85;3.20;;;;;;;4.16;65.00;99190.50;5071596;28;20403;-42
2022/12/13 05:23:30;;;;;;;4.40;2.95;;;;;;;3.88;66.64;99192.81;5071046;28;20028;-43
2022/12/13 05:25:56;;;;;;;4.38;3.10;;;;;;;4.23;65.07;99198.53;5072084;28;20130;-43
2022/12/13 05:28:25;;;;;;;16.33;10.30;;;;;;;4.50;64.42;99210.34;5071826;28;20108;-41
2022/12/13 05:30:51;;;;;;;5.15;3.83;;;;;;;4.86;67.59;99214.97;5071742;28;20028;-43
2022/12/13 05:33:16;;;;;;;6.18;3.20;;;;;;;5.51;65.92;99213.47;5071654;28;20062;-43
2022/12/13 05:35:41;;;;;;;12.60;7.68;;;;;;;5.97;69.95;99215.84;5071544;28;20016;-45
2022/12/13 05:38:07;;;;;;;5.45;3.35;;;;;;;5.93;61.76;99217.22;5071604;28;20024;-43
2022/12/13 05:40:32;;;;;;;5.65;3.15;;;;;;;5.50;61.06;99209.16;5072036;28;20082;-43
2022/12/13 05:42:58;;;;;;;7.00;3.50;;;;;;;5.62;59.90;99201.63;5071009;28;20020;-43
2022/12/13 05:45:25;;;;;;;4.72;3.22;;;;;;;5.49;60.23;99218.91;5071201;28;20034;-43
2022/12/13 05:47:50;;;;;;;4.95;3.42;;;;;;;4.90;60.92;99229.44;5071121;28;20427;-43
2022/12/13 05:50:17;;;;;;;5.75;4.05;;;;;;;4.47;62.43;99231.75;5071146;28;20085;-43
2022/12/13 05:52:42;;;;;;;5.75;3.70;;;;;;;4.85;61.26;99229.97;5070668;28;20024;-43
2022/12/13 05:55:09;;;;;;;5.57;3.83;;;;;;;5.07;60.67;99246.75;5070563;28;20020;-44
2022/12/13 05:57:35;;;;;;;5.32;3.70;;;;;;;4.92;61.22;99239.81;5070505;28;20341;-44
2022/12/13 06:00:01;;;;;;;6.65;3.92;;;;;;;4.66;61.64;99255.03;5070257;28;20480;-43
2022/12/13 06:02:27;;;;;;;6.55;4.30;;;;;;;4.64;61.72;99257.00;5070257;28;20112;-44
2022/12/13 06:04:52;;;;;;;8.85;4.38;;;;;;;4.79;61.54;99258.88;5070470;28;20433;-45
2022/12/13 06:07:18;;;;;;;5.47;3.95;;;;;;;5.23;60.07;99273.94;5070942;28;20020;-45
2022/12/13 06:09:43;;;;;;;6.15;4.30;;;;;;;4.50;62.33;99269.13;5070310;28;20021;-44
2022/12/13 06:12:09;;;;;;;9.95;3.58;;;;;;;4.55;61.79;99265.97;5070454;28;20111;-44
2022/12/13 06:14:34;;;;;;;6.97;4.57;;;;;;;4.54;61.91;99274.88;5069571;28;20393;-44
2022/12/13 06:17:00;;;;;;;8.23;4.30;;;;;;;4.35;62.91;99265.63;5070434;28;20045;-44
2022/12/13 06:19:25;;;;;;;6.30;4.00;;;;;;;4.49;61.96;99274.56;5070347;28;20032;-43
2022/12/13 06:21:53;;;;;;;5.93;4.00;;;;;;;4.15;62.56;99274.94;5070236;28;20026;-43
2022/12/13 06:24:20;;;;;;;6.90;3.85;;;;;;;4.16;63.70;99277.41;5070274;28;20016;-43
2022/12/13 06:26:46;;;;;;;9.82;6.20;;;;;;;4.46;62.55;99282.84;5069877;28;20089;-44
2022/12/13 06:29:17;;;;;;;5.93;4.00;;;;;;;4.36;62.20;99283.06;5070026;28;20073;-44
2022/12/13 06:31:43;;;;;;;6.82;4.10;;;;;;;4.65;61.02;99297.38;5069184;28;20046;-44
2022/12/13 06:34:08;;;;;;;5.93;3.67;;;;;;;4.52;60.61;99289.22;5067662;28;20465;-43
2022/12/13 06:36:33;;;;;;;6.15;3.90;;;;;;;4.39;60.68;99289.81;5068023;28;20632;-46
2022/12/13 06:39:05;;;;;;;5.88;4.05;;;;;;;4.37;60.76;99299.69;5068340;28;20036;-44
2022/12/13 06:41:32;;;;;;;7.75;4.15;;;;;;;4.35;60.21;99299.88;5068337;28;20438;-42
2022/12/13 06:43:57;;;;;;;7.07;3.72;;;;;;;4.26;60.15;99300.91;5068237;28;20012;-43
2022/12/13 06:46:23;;;;;;;7.63;4.50;;;;;;;4.41;59.48;99298.34;5069264;28;20039;-43
2022/12/13 06:48:49;;;;;;;16.17;9.40;;;;;;;4.35;61.68;99312.22;5070199;28;20028;-42
2022/12/13 06:51:14;;;;;;;12.27;6.47;;;;;;;4.53;59.39;99306.66;5070233;28;20122;-43
2022/12/13 06:53:40;;;;;;;7.05;4.40;;;;;;;4.25;59.72;99310.63;5070419;28;20028;-43
2022/12/13 06:56:11;;;;;;;9.48;4.88;;;;;;;4.10;60.35;99296.53;5070206;28;20031;-43
2022/12/13 06:58:38;;;;;;;7.00;4.55;;;;;;;4.25;59.83;99315.88;5070189;28;20024;-43
2022/12/13 07:01:06;;;;;;;11.15;4.93;;;;;;;4.43;59.66;99320.06;5070465;28;20111;-44
2022/12/13 07:03:32;;;;;;;8.38;5.38;;;;;;;4.99;58.33;99325.09;5070449;28;20028;-44
2022/12/13 07:05:59;;;;;;;8.00;4.75;;;;;;;4.75;59.44;99334.03;5070501;28;20025;-43
2022/12/13 07:08:25;;;;;;;9.73;5.15;;;;;;;4.37;60.35;99328.69;5070660;28;20028;-44
2022/12/13 07:10:52;;;;;;;9.65;4.75;;;;;;;4.42;60.67;99334.25;5070242;28;20021;-42
2022/12/13 07:13:19;;;;;;;10.23;5.03;;;;;;;4.59;60.28;99340.22;5070184;28;20099;-43
2022/12/13 07:15:45;;;;;;;10.15;4.93;;;;;;;4.82;60.15;99348.16;5070360;28;20040;-42
2022/12/13 07:18:11;;;;;;;9.45;5.13;;;;;;;4.58;59.92;99342.03;5069607;28;20078;-43
2022/12/13 07:20:41;;;;;;;9.73;5.55;;;;;;;4.60;60.61;99342.69;5069942;28;20111;-44
2022/12/13 07:23:07;;;;;;;12.32;5.47;;;;;;;4.40;61.21;99336.22;5069729;28;20017;-44
2022/12/13 07:25:32;;;;;;;8.35;4.53;;;;;;;4.64;59.53;99349.25;5069721;28;20161;-42
2022/12/13 07:28:04;;;;;;;11.13;5.20;;;;;;;5.02;60.72;99349.31;5068803;28;20104;-44
2022/12/13 07:30:33;;;;;;;13.38;7.63;;;;;;;4.98;59.02;99348.03;5070042;28;20357;-41
2022/12/13 07:33:00;;;;;;;8.10;4.63;;;;;;;4.44;60.47;99348.06;5069753;28;20025;-43
2022/12/13 07:35:26;;;;;;;7.63;4.72;;;;;;;4.27;61.27;99349.97;5069770;28;20032;-43
2022/12/13 07:37:51;;;;;;;8.75;4.82;;;;;;;4.35;61.91;99346.47;5069719;28;20085;-42
2022/12/13 07:40:17;;;;;;;8.85;5.00;;;;;;;4.50;61.31;99350.81;5069601;28;20515;-44
2022/12/13 07:42:54;;;;;;;13.43;6.00;;;;;;;4.61;60.78;99346.16;5069844;28;20103;-42
2022/12/13 07:45:21;;;;;;;13.50;4.68;;;;;;;4.87;59.96;99358.97;5070143;28;20012;-43
2022/12/13 07:47:47;;;;;;;13.05;5.20;;;;;;;4.70;60.10;99358.28;5073615;28;20481;-44
2022/12/13 07:50:13;;;;;;;10.60;5.35;;;;;;;4.46;60.36;99359.25;5073619;28;20147;-44
2022/12/13 07:52:38;;;;;;;10.15;4.88;;;;;;;4.64;59.73;99348.44;5073522;28;20115;-44
2022/12/13 07:55:06;;;;;;;10.77;5.70;;;;;;;4.65;59.15;99350.91;5073216;28;20392;-44
2022/12/13 07:57:32;;;;;;;7.15;4.20;;;;;;;4.49;59.76;99343.09;5073496;28;20028;-43
2022/12/13 07:59:57;;;;;;;6.90;4.40;;;;;;;4.74;59.31;99366.66;5073050;28;20031;-44
2022/12/13 08:02:23;;;;;;;8.20;4.47;;;;;;;4.55;59.29;99365.28;5073464;28;20021;-43
2022/12/13 08:04:48;;;;;;;6.60;4.35;;;;;;;4.57;59.12;99365.94;5073501;28;20040;-43
2022/12/13 08:07:14;;;;;;;11.75;5.55;;;;;;;4.56;59.30;99356.41;5073097;28;20027;-44
2022/12/13 08:09:39;;;;;;;7.20;4.68;;;;;;;4.68;58.37;99366.38;5072965;28;20060;-44
2022/12/13 08:12:05;;;;;;;9.65;4.88;;;;;;;4.86;58.05;99365.28;5072618;28;20082;-43
2022/12/13 08:14:30;;;;;;;7.80;4.30;;;;;;;4.67;57.70;99372.63;5072844;28;20032;-44
2022/12/13 08:16:56;;;;;;;7.15;4.03;;;;;;;4.70;56.67;99374.94;5072549;28;20596;-43
2022/12/13 08:19:21;;;;;;;9.50;4.72;;;;;;;4.89;56.88;99373.66;5072689;28;20035;-44
2022/12/13 08:21:47;;;;;;;8.13;4.75;;;;;;;4.90;56.90;99377.09;5072661;28;20020;-43
2022/12/13 08:24:12;;;;;;;8.48;4.25;;;;;;;4.92;56.40;99383.03;5072801;28;20078;-44
2022/12/13 08:26:38;;;;;;;8.65;4.40;;;;;;;5.04;55.81;99384.22;5072901;28;20024;-43
2022/12/13 08:29:03;;;;;;;8.77;4.88;;;;;;;5.04;56.34;99384.22;5072939;28;20118;-43
2022/12/13 08:31:29;;;;;;;17.45;8.73;;;;;;;5.18;55.73;99379.19;5072639;28;20028;-43
2022/12/13 08:33:55;;;;;;;7.55;4.60;;;;;;;4.95;56.41;99389.75;5072301;28;20485;-43
2022/12/13 08:36:23;;;;;;;9.05;4.50;;;;;;;4.94;56.43;99388.13;5072446;28;20025;-44
2022/12/13 08:38:52;;;;;;;6.47;3.58;;;;;;;4.76;57.03;99388.38;5072367;28;20031;-43
2022/12/13 08:41:18;;;;;;;8.82;4.70;;;;;;;5.11;56.93;99391.47;5072833;28;20071;-44
2022/12/13 08:43:43;;;;;;;6.63;4.03;;;;;;;5.04;56.63;99389.50;5071828;28;20024;-43
2022/12/13 08:46:08;;;;;;;8.65;5.00;;;;;;;5.08;56.76;99390.81;5072041;28;20043;-43
2022/12/13 08:48:34;;;;;;;11.93;4.97;;;;;;;5.08;56.96;99388.19;5072269;28;20031;-43
2022/12/13 08:51:06;;;;;;;7.75;5.03;;;;;;;5.52;54.95;99385.84;5072361;28;20104;-44
2022/12/13 08:53:31;;;;;;;12.00;5.35;;;;;;;5.64;54.14;99387.88;5072145;28;20036;-44
2022/12/13 08:56:01;;;;;;;8.95;4.88;;;;;;;5.25;55.37;99388.03;5072272;28;20196;-43
2022/12/13 08:58:27;;;;;;;8.00;4.53;;;;;;;5.11;54.82;99375.63;5071207;28;20093;-44
2022/12/13 09:00:52;;;;;;;8.02;4.50;;;;;;;5.06;53.93;99374.34;5072313;28;20028;-44
2022/12/13 09:03:18;;;;;;;7.85;4.60;;;;;;;4.81;55.43;99367.59;5071975;28;20020;-43
2022/12/13 09:05:43;;;;;;;8.07;5.28;;;;;;;5.31;54.91;99384.69;5071879;28;20095;-44
2022/12/13 09:08:09;;;;;;;11.60;5.15;;;;;;;5.48;53.50;99374.81;5071777;28;20100;-43
2022/12/13 09:10:34;;;;;;;8.93;5.32;;;;;;;5.75;54.24;99369.94;5071887;28;20021;-44
2022/12/13 09:13:00;;;;;;;12.00;5.28;;;;;;;5.31;54.17;99373.31;5071759;28;20112;-43
2022/12/13 09:15:26;;;;;;;9.05;5.10;;;;;;;5.18;54.17;99368.63;5071413;28;20024;-43
2022/12/13 09:17:53;;;;;;;10.48;5.25;;;;;;;5.17;53.62;99369.66;5071400;28;20484;-44
2022/12/13 09:20:19;;;;;;;13.35;5.55;;;;;;;5.19;54.69;99362.38;5071558;28;20024;-44
2022/12/13 09:22:44;;;;;;;9.35;4.97;;;;;;;5.54;52.96;99368.84;5071470;28;20089;-45
2022/12/13 09:25:10;;;;;;;10.25;5.70;;;;;;;5.23;53.61;99371.56;5071462;28;20470;-44
2022/12/13 09:27:35;;;;;;;10.55;5.60;;;;;;;5.23;53.58;99371.56;5071091;28;20361;-44
2022/12/13 09:30:01;;;;;;;9.45;5.32;;;;;;;5.45;53.04;99359.34;5071260;28;20025;-44
2022/12/13 09:32:27;;;;;;;9.82;5.78;;;;;;;5.65;53.02;99365.75;5071683;28;20074;-44
2022/12/13 09:34:52;;;;;;;12.50;5.63;;;;;;;5.84;51.78;99364.38;5071274;28;20075;-44
2022/12/13 09:37:18;;;;;;;8.40;4.70;;;;;;;5.84;51.38;99353.81;5071285;28;20024;-44
2022/12/13 09:39:44;;;;;;;8.50;5.03;;;;;;;6.11;51.91;99358.66;5071196;28;20472;-44
2022/12/13 09:42:20;;;;;;;7.75;4.63;;;;;;;6.21;51.56;99349.47;5071256;28;20052;-44
2022/12/13 09:44:51;;;;;;;8.63;5.05;;;;;;;6.12;51.94;99342.63;5071036;28;20044;-44
2022/12/13 09:47:30;;;;;;;8.35;5.35;;;;;;;6.34;51.01;99329.47;5070841;28;20081;-44
2022/12/13 09:49:57;;;;;;;11.55;5.80;;;;;;;6.22;51.84;99329.94;5071041;28;20099;-44
2022/12/13 09:52:24;;;;;;;11.95;5.00;;;;;;;6.48;51.50;99328.63;5071039;28;20020;-43
2022/12/13 09:54:55;;;;;;;11.27;6.35;;;;;;;6.73;50.71;99330.91;5070840;28;20032;-44
2022/12/13 09:57:31;;;;;;;13.65;6.13;;;;;;;6.64;51.08;99312.53;5070872;28;20425;-41
2022/12/13 09:59:56;;;;;;;11.10;5.25;;;;;;;6.41;50.42;99314.50;5070908;28;20046;-44
2022/12/13 10:02:26;;;;;;;14.23;6.97;;;;;;;6.28;50.97;99309.88;5070544;28;20082;-44
2022/12/13 10:04:52;;;;;;;12.25;6.47;;;;;;;6.14;51.79;99314.19;5071037;28;20032;-43
2022/12/13 10:07:23;;;;;;;9.25;5.55;;;;;;;6.12;51.40;99313.56;5071075;28;20027;-43
2022/12/13 10:10:02;;;;;;;10.82;6.15;;;;;;;6.62;51.44;99309.22;5070934;28;20108;-43
2022/12/13 10:12:28;;;;;;;9.30;5.68;;;;;;;7.01;49.73;99317.75;5070602;28;20047;-44
2022/12/13 10:14:58;;;;;;;9.02;5.28;;;;;;;6.50;50.95;99325.78;5070578;28;20536;-43
2022/12/13 10:17:27;;;;;;;7.72;4.88;;;;;;;6.92;49.66;99319.69;5070250;28;20044;-43
2022/12/13 10:19:53;;;;;;;7.25;4.82;;;;;;;7.39;48.26;99315.59;5070599;28;20020;-43
2022/12/13 10:22:21;;;;;;;8.57;5.18;;;;;;;7.05;48.47;99319.81;5070713;28;20086;-43
2022/12/13 10:25:02;;;;;;;7.45;4.72;;;;;;;7.08;48.81;99315.13;5070611;28;20386;-44
2022/12/13 10:27:41;;;;;;;8.57;5.22;;;;;;;7.29;48.47;99322.22;5070634;28;20099;-43
2022/12/13 10:30:10;;;;;;;8.65;5.53;;;;;;;7.86;46.69;99315.84;5070665;28;20025;-45
2022/12/13 10:32:57;;;;;;;8.70;5.18;;;;;;;7.77;46.60;99320.50;5070767;28;20123;-43
2022/12/13 10:35:26;;;;;;;7.93;4.88;;;;;;;7.75;46.85;99308.47;5070305;28;20035;-44
2022/12/13 10:37:53;;;;;;;9.65;5.85;;;;;;;7.46;48.25;99302.38;5070356;28;20039;-44
2022/12/13 10:40:22;;;;;;;8.98;5.43;;;;;;;8.15;46.30;99298.88;5070826;28;20029;-46
2022/12/13 10:43:06;;;;;;;8.83;5.00;;;;;;;8.22;46.38;99294.44;5070384;28;20052;-45
2022/12/13 10:45:32;;;;;;;7.38;4.68;;;;;;;8.02;46.50;99299.63;5070326;28;20270;-44
2022/12/13 10:47:57;;;;;;;7.13;4.40;;;;;;;8.07;46.79;99301.69;5069944;28;20020;-43
2022/12/13 10:50:26;;;;;;;6.40;4.50;;;;;;;8.37;45.71;99296.09;5070408;28;20024;-44
2022/12/13 10:52:52;;;;;;;7.73;4.67;;;;;;;8.46;45.23;99279.00;5070081;28;20107;-45
2022/12/13 10:55:24;;;;;;;7.70;4.95;;;;;;;8.73;44.82;99292.31;5069844;28;20033;-44
2022/12/13 10:57:52;;;;;;;7.38;4.53;;;;;;;9.22;44.17;99282.34;5070304;28;20020;-42
2022/12/13 11:00:33;;;;;;;8.70;4.38;;;;;;;9.37;44.20;99273.09;5069978;28;20356;-43
2022/12/13 11:02:58;;;;;;;8.40;4.75;;;;;;;8.76;44.16;99274.16;5069739;28;20021;-43
2022/12/13 11:05:31;;;;;;;9.02;5.13;;;;;;;8.83;44.73;99263.53;5069906;28;20023;-43
2022/12/13 11:08:15;;;;;;;9.43;5.03;;;;;;;8.67;44.41;99275.38;5069996;28;20099;-43
2022/12/13 11:10:41;;;;;;;10.27;5.13;;;;;;;8.96;43.99;99270.69;5069836;28;20076;-43
2022/12/13 11:13:07;;;;;;;7.85;5.10;;;;;;;9.11;44.97;99279.25;5069782;28;20032;-43
2022/12/13 11:15:36;;;;;;;10.27;5.55;;;;;;;9.25;44.21;99268.63;5069900;28;20036;-42
2022/12/13 11:18:07;;;;;;;9.80;5.28;;;;;;;9.02;45.01;99271.72;5068635;28;20048;-43
2022/12/13 11:20:37;;;;;;;7.00;5.20;;;;;;;9.38;44.28;99263.28;5070521;28;20028;-42
2022/12/13 11:23:22;;;;;;;7.47;5.05;;;;;;;9.46;43.54;99252.47;5073809;28;20137;-44
2022/12/13 11:25:53;;;;;;;9.05;5.13;;;;;;;9.48;43.48;99257.56;5073849;28;20078;-45
2022/12/13 11:28:47;;;;;;;7.38;4.90;;;;;;;9.13;44.10;99252.50;5073374;28;20030;-43
2022/12/13 11:31:46;;;;;;;7.15;4.43;;;;;;;8.85;44.97;99256.19;5073981;28;20032;-45
2022/12/13 11:34:25;;;;;;;12.07;4.97;;;;;;;9.11;44.88;99257.22;5073659;28;20081;-44
2022/12/13 11:37:14;;;;;;;8.93;4.63;;;;;;;9.00;44.87;99246.22;5073680;28;20025;-45
2022/12/13 11:39:52;;;;;;;6.70;4.75;;;;;;;9.26;44.07;99251.69;5073669;28;20563;-45
2022/12/13 11:42:30;;;;;;;10.15;5.15;;;;;;;8.96;44.83;99254.75;5073566;28;20024;-44
2022/12/13 11:45:11;;;;;;;10.07;4.65;;;;;;;9.05;44.97;99256.19;5073450;28;20345;-43
2022/12/13 11:47:50;;;;;;;6.50;4.70;;;;;;;9.49;44.88;99256.53;5073391;28;20028;-44
2022/12/13 11:50:30;;;;;;;11.82;5.20;;;;;;;9.81;43.57;99248.69;5073339;28;20021;-45
2022/12/13 11:53:03;;;;;;;8.57;5.65;;;;;;;9.40;43.64;99255.94;5073112;28;20464;-44